Time;durP1;ratioP1;P1;durP2;ratioP2;P2;SDS_P1;SDS_P2;PMS_P1;PMS_P2;Temp;Humidity;BMP_temperature;BMP_pressure;BME280_temperature;BME280_humidity;BME280_pressure;Samples;Min_cycle;Max_cycle;Signal;HPM_P1;HPM_P2
2021/12/06 00:00:29;;;;;;;;;;;1.00;99.90;;;;;;4862129;29;19979;-67
2021/12/06 00:02:57;;;;;;;;;;;1.00;99.90;;;;;;4860928;29;19931;-68
2021/12/06 00:05:25;;;;;;;;;;;1.00;99.90;;;;;;4862975;29;20326;-67
2021/12/06 00:07:52;;;;;;;;;;;1.00;99.90;;;;;;4863513;29;20237;-67
2021/12/06 00:10:19;;;;;;;;;;;1.00;99.90;;;;;;4863445;29;19979;-68
2021/12/06 00:12:46;;;;;;;;;;;1.00;99.90;;;;;;4863301;29;19961;-67
2021/12/06 00:15:13;;;;;;;;;;;1.00;99.90;;;;;;4863667;29;19927;-68
2021/12/06 00:17:40;;;;;;;;;;;1.00;99.90;;;;;;4863000;29;19927;-68
2021/12/06 00:20:08;;;;;;;;;;;1.10;99.90;;;;;;4863896;29;20889;-68
2021/12/06 00:22:34;;;;;;;;;;;1.00;99.90;;;;;;4863121;29;20424;-69
2021/12/06 00:25:02;;;;;;;;;;;1.10;99.90;;;;;;4863756;29;20143;-68
2021/12/06 00:27:29;;;;;;;;;;;1.10;99.90;;;;;;4863436;29;19991;-67
2021/12/06 00:29:55;;;;;;;;;;;1.10;99.90;;;;;;4862703;29;19991;-67
2021/12/06 00:32:22;;;;;;;;;;;1.10;99.90;;;;;;4863464;29;19931;-68
2021/12/06 00:34:49;;;;;;;;;;;1.10;99.90;;;;;;4862647;29;19935;-68
2021/12/06 00:39:44;;;;;;;;;;;1.10;99.90;;;;;;4862671;29;20437;-68
2021/12/06 00:42:11;;;;;;;;;;;1.10;99.90;;;;;;4863842;29;20426;-68
2021/12/06 00:44:38;;;;;;;;;;;1.10;99.90;;;;;;4863946;29;19927;-68
2021/12/06 00:47:05;;;;;;;;;;;1.10;99.90;;;;;;4863495;29;20035;-68
2021/12/06 00:49:33;;;;;;;;;;;1.10;99.90;;;;;;4863944;29;20399;-68
2021/12/06 00:52:00;;;;;;;;;;;1.10;99.90;;;;;;4863151;29;19939;-68
2021/12/06 00:54:29;;;;;;;;;;;1.10;99.90;;;;;;4863333;29;20502;-68
2021/12/06 00:56:56;;;;;;;;;;;1.10;99.90;;;;;;4876474;29;20408;-68
2021/12/06 00:59:22;;;;;;;;;;;1.10;99.90;;;;;;4863023;29;20298;-67
2021/12/06 01:01:51;;;;;;;;;;;1.10;99.90;;;;;;4878234;29;19934;-68
2021/12/06 01:04:17;;;;;;;;;;;1.10;99.90;;;;;;4865338;29;19974;-68
2021/12/06 01:06:44;;;;;;;;;;;1.00;99.90;;;;;;4866552;29;20148;-67
2021/12/06 01:09:11;;;;;;;;;;;1.00;99.90;;;;;;4866104;29;19924;-68
2021/12/06 01:11:38;;;;;;;;;;;1.10;99.90;;;;;;4881952;29;20386;-67
2021/12/06 01:14:05;;;;;;;;;;;1.00;99.90;;;;;;4881649;29;19955;-68
2021/12/06 01:16:32;;;;;;;;;;;1.10;99.90;;;;;;4866533;29;20390;-68
2021/12/06 01:18:59;;;;;;;;;;;1.10;99.90;;;;;;4880539;29;19935;-67
2021/12/06 01:21:40;;;;;;;;;;;1.10;99.90;;;;;;4880488;29;19928;-67
2021/12/06 01:24:10;;;;;;;;;;;1.10;99.90;;;;;;4880660;29;20022;-67
2021/12/06 01:40:09;;;;;;;;;;;1.00;99.90;;;;;;4880289;29;19928;-67
2021/12/06 01:42:36;;;;;;;;;;;1.00;99.90;;;;;;4879562;29;20303;-67
2021/12/06 01:45:03;;;;;;;;;;;1.00;99.90;;;;;;4880277;29;19931;-66
2021/12/06 01:47:34;;;;;;;;;;;1.00;99.90;;;;;;4879668;29;20283;-67
2021/12/06 01:50:06;;;;;;;;;;;1.00;99.90;;;;;;4879868;29;20295;-67
2021/12/06 01:52:39;;;;;;;;;;;1.00;99.90;;;;;;4880825;29;19932;-67
2021/12/06 01:55:10;;;;;;;;;;;1.00;99.90;;;;;;4866383;29;19927;-67
2021/12/06 01:57:36;;;;;;;;;;;1.00;99.90;;;;;;4864792;29;19924;-67
2021/12/06 02:00:08;;;;;;;;;;;1.00;99.90;;;;;;4880464;29;20026;-67
2021/12/06 02:02:41;;;;;;;;;;;1.00;99.90;;;;;;4867159;29;19934;-67
2021/12/06 02:05:13;;;;;;;;;;;1.00;99.90;;;;;;4880554;29;20098;-67
2021/12/06 02:07:40;;;;;;;;;;;1.00;99.90;;;;;;4880676;29;19959;-66
2021/12/06 02:10:07;;;;;;;;;;;1.00;99.90;;;;;;4865078;29;20007;-67
2021/12/06 02:12:34;;;;;;;;;;;1.00;99.90;;;;;;4866586;29;19928;-67
2021/12/06 02:15:07;;;;;;;;;;;0.90;99.90;;;;;;4879883;29;19987;-67
2021/12/06 02:17:41;;;;;;;;;;;1.00;99.90;;;;;;4879727;29;19935;-66
2021/12/06 02:20:23;;;;;;;;;;;1.00;99.90;;;;;;4865952;29;19928;-67
2021/12/06 02:22:50;;;;;;;;;;;1.00;99.90;;;;;;4878706;29;19927;-67
2021/12/06 02:25:19;;;;;;;;;;;1.00;99.90;;;;;;4865323;29;19928;-66
2021/12/06 02:27:48;;;;;;;;;;;1.00;99.90;;;;;;4865183;29;19934;-67
2021/12/06 02:30:18;;;;;;;;;;;1.00;99.90;;;;;;4879092;29;20195;-67
2021/12/06 02:32:46;;;;;;;;;;;1.00;99.90;;;;;;4864890;29;20485;-67
2021/12/06 02:35:16;;;;;;;;;;;1.00;99.90;;;;;;4878982;29;19935;-67
2021/12/06 02:37:43;;;;;;;;;;;1.00;99.90;;;;;;4863607;29;19946;-67
2021/12/06 02:40:13;;;;;;;;;;;1.00;99.90;;;;;;4863534;29;19935;-67
2021/12/06 02:42:39;;;;;;;;;;;1.00;99.90;;;;;;4879120;29;19928;-67
2021/12/06 02:45:09;;;;;;;;;;;1.00;99.90;;;;;;4879203;29;20018;-67
2021/12/06 02:47:35;;;;;;;;;;;1.00;99.90;;;;;;4865026;29;20357;-67
2021/12/06 02:50:08;;;;;;;;;;;1.00;99.90;;;;;;4878439;29;19927;-67
2021/12/06 02:52:35;;;;;;;;;;;0.90;99.90;;;;;;4864884;29;20146;-68
2021/12/06 02:55:09;;;;;;;;;;;1.00;99.90;;;;;;4878802;29;19935;-67
2021/12/06 02:57:38;;;;;;;;;;;0.90;99.90;;;;;;4863117;29;19928;-67
2021/12/06 03:00:09;;;;;;;;;;;0.90;99.90;;;;;;4878919;29;19935;-67
2021/12/06 03:02:36;;;;;;;;;;;1.00;99.90;;;;;;4878670;29;19935;-67
2021/12/06 03:05:04;;;;;;;;;;;0.90;99.90;;;;;;4878728;29;19928;-68
2021/12/06 03:07:36;;;;;;;;;;;1.00;99.90;;;;;;4878151;29;19927;-67
2021/12/06 03:10:04;;;;;;;;;;;1.00;99.90;;;;;;4878682;29;19931;-67
2021/12/06 03:12:30;;;;;;;;;;;1.00;99.90;;;;;;4864152;29;19927;-67
2021/12/06 03:14:58;;;;;;;;;;;1.00;99.90;;;;;;4878888;29;19934;-67
2021/12/06 03:17:28;;;;;;;;;;;1.00;99.90;;;;;;4878119;29;19935;-67
2021/12/06 03:19:56;;;;;;;;;;;1.00;99.90;;;;;;4878085;29;20636;-67
2021/12/06 03:22:26;;;;;;;;;;;1.00;99.90;;;;;;4862549;29;19971;-67
2021/12/06 03:24:54;;;;;;;;;;;1.00;99.90;;;;;;4877756;29;20318;-67
2021/12/06 03:27:21;;;;;;;;;;;1.00;99.90;;;;;;4863234;29;20481;-67
2021/12/06 03:29:50;;;;;;;;;;;1.00;99.90;;;;;;4878740;29;19928;-67
2021/12/06 03:32:19;;;;;;;;;;;1.00;99.90;;;;;;4864186;29;19927;-68
2021/12/06 03:34:46;;;;;;;;;;;0.90;99.90;;;;;;4877941;29;20473;-68
2021/12/06 03:37:14;;;;;;;;;;;0.90;99.90;;;;;;4860101;29;20342;-67
2021/12/06 03:39:43;;;;;;;;;;;0.90;99.90;;;;;;4874817;29;19923;-67
2021/12/06 03:42:18;;;;;;;;;;;0.90;99.90;;;;;;4875762;29;20434;-67
2021/12/06 03:44:45;;;;;;;;;;;0.90;99.90;;;;;;4877950;29;20414;-68
2021/12/06 03:47:18;;;;;;;;;;;0.90;99.90;;;;;;4877778;29;20470;-68
2021/12/06 03:49:45;;;;;;;;;;;0.90;99.90;;;;;;4877816;29;20214;-69
2021/12/06 03:52:14;;;;;;;;;;;0.90;99.90;;;;;;4877784;29;19924;-67
2021/12/06 03:54:43;;;;;;;;;;;0.90;99.90;;;;;;4878077;29;20410;-67
2021/12/06 03:57:11;;;;;;;;;;;0.90;99.90;;;;;;4878121;29;19928;-67
2021/12/06 03:59:39;;;;;;;;;;;0.90;99.90;;;;;;4877236;29;19927;-68
2021/12/06 04:02:07;;;;;;;;;;;0.80;99.90;;;;;;4872881;29;19927;-68
2021/12/06 04:04:35;;;;;;;;;;;0.80;99.90;;;;;;4863632;29;19927;-67
2021/12/06 04:07:02;;;;;;;;;;;0.80;99.90;;;;;;4870153;29;20170;-67
2021/12/06 04:09:30;;;;;;;;;;;0.80;99.90;;;;;;4860942;29;20457;-68
2021/12/06 04:11:57;;;;;;;;;;;0.80;99.90;;;;;;4863355;29;20023;-68
2021/12/06 04:14:24;;;;;;;;;;;0.80;99.90;;;;;;4876807;29;19931;-67
2021/12/06 04:16:51;;;;;;;;;;;0.70;99.90;;;;;;4870566;29;19928;-68
2021/12/06 04:19:18;;;;;;;;;;;0.80;99.90;;;;;;4877914;29;19955;-67
2021/12/06 04:21:45;;;;;;;;;;;0.80;99.90;;;;;;4858570;29;20470;-68
2021/12/06 04:24:13;;;;;;;;;;;0.80;99.90;;;;;;4863895;29;19928;-68
2021/12/06 04:26:40;;;;;;;;;;;0.80;99.90;;;;;;4873454;29;19944;-68
2021/12/06 04:29:08;;;;;;;;;;;0.80;99.90;;;;;;4876488;29;20042;-67
2021/12/06 04:31:44;;;;;;;;;;;0.80;99.90;;;;;;4858100;29;19950;-68
2021/12/06 04:34:11;;;;;;;;;;;0.80;99.90;;;;;;4864105;29;19923;-68
2021/12/06 04:36:41;;;;;;;;;;;0.80;99.90;;;;;;4876595;29;20216;-68
2021/12/06 04:39:10;;;;;;;;;;;0.80;99.90;;;;;;4880260;29;19928;-67
2021/12/06 04:41:37;;;;;;;;;;;0.80;99.90;;;;;;4865854;29;19927;-68
2021/12/06 04:44:05;;;;;;;;;;;0.80;99.90;;;;;;4880028;29;19928;-68
2021/12/06 04:46:33;;;;;;;;;;;0.80;99.90;;;;;;4880074;29;19928;-68
2021/12/06 04:49:00;;;;;;;;;;;0.90;99.90;;;;;;4878787;29;19959;-68
2021/12/06 04:51:27;;;;;;;;;;;0.80;99.90;;;;;;4880403;29;20015;-68
2021/12/06 04:53:54;;;;;;;;;;;0.90;99.90;;;;;;4879650;29;20417;-67
2021/12/06 04:56:27;;;;;;;;;;;0.90;99.90;;;;;;4879334;29;20214;-68
2021/12/06 04:59:17;;;;;;;;;;;0.90;99.90;;;;;;4879181;29;19932;-68
2021/12/06 05:01:45;;;;;;;;;;;0.90;99.90;;;;;;4874541;29;19953;-66
2021/12/06 05:04:19;;;;;;;;;;;0.90;99.90;;;;;;4865818;29;20007;-68
2021/12/06 05:06:48;;;;;;;;;;;0.90;99.90;;;;;;4862532;29;19932;-67
2021/12/06 05:09:17;;;;;;;;;;;0.80;99.90;;;;;;4861245;29;19928;-67
2021/12/06 05:11:44;;;;;;;;;;;0.80;99.90;;;;;;4842431;29;1110028;-67
2021/12/06 05:14:11;;;;;;;;;;;0.80;99.90;;;;;;4866729;29;20314;-68
2021/12/06 05:16:39;;;;;;;;;;;0.80;99.90;;;;;;4875973;29;20182;-67
2021/12/06 05:19:08;;;;;;;;;;;0.80;99.90;;;;;;4886420;29;19928;-68
2021/12/06 05:21:38;;;;;;;;;;;0.80;99.90;;;;;;4879268;29;19971;-68
2021/12/06 05:24:06;;;;;;;;;;;0.80;99.90;;;;;;4877495;29;19935;-68
2021/12/06 05:26:34;;;;;;;;;;;0.80;99.90;;;;;;4877366;29;19959;-67
2021/12/06 05:29:04;;;;;;;;;;;0.80;99.90;;;;;;4880585;29;20523;-67
2021/12/06 05:31:33;;;;;;;;;;;0.80;99.90;;;;;;4878731;29;19927;-67
2021/12/06 05:34:06;;;;;;;;;;;0.80;99.90;;;;;;4865978;29;20577;-68
2021/12/06 05:36:33;;;;;;;;;;;0.70;99.90;;;;;;4865024;29;19928;-67
2021/12/06 05:39:00;;;;;;;;;;;0.80;99.90;;;;;;4865731;29;19987;-67
2021/12/06 05:41:26;;;;;;;;;;;0.80;99.90;;;;;;4866070;29;19931;-67
2021/12/06 05:43:53;;;;;;;;;;;0.80;99.90;;;;;;4866255;29;19932;-67
2021/12/06 05:46:20;;;;;;;;;;;0.80;99.90;;;;;;4866030;29;20406;-67
2021/12/06 05:48:46;;;;;;;;;;;0.80;99.90;;;;;;4865434;29;20162;-66
2021/12/06 05:51:13;;;;;;;;;;;0.70;99.90;;;;;;4879869;29;19935;-65
2021/12/06 05:53:40;;;;;;;;;;;0.70;99.90;;;;;;4867481;29;19983;-66
2021/12/06 05:56:06;;;;;;;;;;;0.70;99.90;;;;;;4867179;29;19939;-65
2021/12/06 05:58:34;;;;;;;;;;;0.70;99.90;;;;;;4866558;29;19983;-65
2021/12/06 06:01:01;;;;;;;;;;;0.70;99.90;;;;;;4866818;29;19943;-65
2021/12/06 06:03:28;;;;;;;;;;;0.70;99.90;;;;;;4880313;29;20030;-66
2021/12/06 06:05:56;;;;;;;;;;;0.70;99.90;;;;;;4864691;29;19931;-66
2021/12/06 06:08:22;;;;;;;;;;;0.70;99.90;;;;;;4859423;29;20378;-66
2021/12/06 06:10:51;;;;;;;;;;;0.70;99.90;;;;;;4865267;29;19988;-66
2021/12/06 06:13:18;;;;;;;;;;;0.70;99.90;;;;;;4865003;29;19928;-66
2021/12/06 06:15:45;;;;;;;;;;;0.60;99.90;;;;;;4863621;29;19988;-66
2021/12/06 06:18:12;;;;;;;;;;;0.60;99.90;;;;;;4862763;29;19927;-66
2021/12/06 06:21:05;;;;;;;;;;;0.60;99.90;;;;;;4863794;29;20022;-68
2021/12/06 06:23:31;;;;;;;;;;;0.60;99.90;;;;;;4864013;29;19935;-51
2021/12/06 06:25:59;;;;;;;;;;;0.60;99.90;;;;;;4864601;29;20027;-55
2021/12/06 06:28:26;;;;;;;;;;;0.60;99.90;;;;;;4864478;29;19928;-55
2021/12/06 06:30:52;;;;;;;;;;;0.60;99.90;;;;;;4863000;29;19995;-54
2021/12/06 06:33:19;;;;;;;;;;;0.60;99.90;;;;;;4864821;29;19963;-55
2021/12/06 06:35:46;;;;;;;;;;;0.50;99.90;;;;;;4863378;29;19928;-55
2021/12/06 06:38:14;;;;;;;;;;;0.50;99.90;;;;;;4864486;29;19927;-54
2021/12/06 06:40:40;;;;;;;;;;;0.50;99.90;;;;;;4865118;29;19932;-54
2021/12/06 06:43:07;;;;;;;;;;;0.50;99.90;;;;;;4864465;29;19979;-54
2021/12/06 06:45:34;;;;;;;;;;;0.50;99.90;;;;;;4864621;29;19932;-55
2021/12/06 06:48:00;;;;;;;;;;;0.50;99.90;;;;;;4864014;29;19932;-54
2021/12/06 06:50:27;;;;;;;;;;;0.50;99.90;;;;;;4864040;29;19987;-53
2021/12/06 06:52:54;;;;;;;;;;;0.50;99.90;;;;;;4861944;29;20121;-53
2021/12/06 06:55:21;;;;;;;;;;;0.50;99.90;;;;;;4863208;29;20306;-54
2021/12/06 06:57:50;;;;;;;;;;;0.50;99.90;;;;;;4865100;29;19927;-55
2021/12/06 07:00:19;;;;;;;;;;;0.50;99.90;;;;;;4863248;29;19939;-53
2021/12/06 07:02:46;;;;;;;;;;;0.50;99.90;;;;;;4864407;29;19928;-52
2021/12/06 07:05:13;;;;;;;;;;;0.50;99.90;;;;;;4864030;29;19935;-52
2021/12/06 07:07:40;;;;;;;;;;;0.50;99.90;;;;;;4857774;29;19955;-53
2021/12/06 07:10:07;;;;;;;;;;;0.50;99.90;;;;;;4862930;29;19979;-52
2021/12/06 07:12:41;;;;;;;;;;;0.50;99.90;;;;;;4864516;29;19934;-52
2021/12/06 07:15:10;;;;;;;;;;;0.50;99.90;;;;;;4864700;29;19927;-52
2021/12/06 07:17:36;;;;;;;;;;;0.50;99.90;;;;;;4859907;29;20442;-53
2021/12/06 07:20:03;;;;;;;;;;;0.50;99.90;;;;;;4862194;29;20446;-54
2021/12/06 07:22:30;;;;;;;;;;;0.50;99.90;;;;;;4863167;29;19931;-53
2021/12/06 07:24:56;;;;;;;;;;;0.50;99.90;;;;;;4863849;29;19932;-52
2021/12/06 07:27:25;;;;;;;;;;;0.60;99.90;;;;;;4863384;29;20023;-52
2021/12/06 07:29:52;;;;;;;;;;;0.50;99.90;;;;;;4863339;29;19928;-50
2021/12/06 07:32:19;;;;;;;;;;;0.50;99.90;;;;;;4863681;29;19927;-56
2021/12/06 07:34:50;;;;;;;;;;;0.50;99.90;;;;;;4863770;29;19927;-53
2021/12/06 07:37:19;;;;;;;;;;;0.50;99.90;;;;;;4863486;29;19927;-54
2021/12/06 07:39:46;;;;;;;;;;;0.50;99.90;;;;;;4861111;29;19999;-55
2021/12/06 07:42:13;;;;;;;;;;;0.50;99.90;;;;;;4877374;29;20318;-54
2021/12/06 07:44:43;;;;;;;;;;;0.60;99.90;;;;;;4863085;29;20493;-53
2021/12/06 07:47:11;;;;;;;;;;;0.60;99.90;;;;;;4863481;29;19932;-50
2021/12/06 07:49:39;;;;;;;;;;;0.60;99.90;;;;;;4863199;29;19923;-52
2021/12/06 07:52:25;;;;;;;;;;;0.60;99.90;;;;;;4863393;29;19935;-51
2021/12/06 07:54:58;;;;;;;;;;;0.60;99.90;;;;;;4860149;29;19924;-52
2021/12/06 07:57:28;;;;;;;;;;;0.50;99.90;;;;;;4863470;29;19928;-52
2021/12/06 07:59:55;;;;;;;;;;;0.50;99.90;;;;;;4863102;29;19927;-54
2021/12/06 08:02:23;;;;;;;;;;;0.50;99.90;;;;;;4863117;29;19927;-56
2021/12/06 08:04:59;;;;;;;;;;;0.60;99.90;;;;;;4862602;29;19962;-60
2021/12/06 08:07:27;;;;;;;;;;;0.60;99.90;;;;;;4856993;29;20318;-55
2021/12/06 08:09:53;;;;;;;;;;;0.60;99.90;;;;;;4862824;29;20544;-54
2021/12/06 08:12:21;;;;;;;;;;;0.60;99.90;;;;;;4863698;29;20022;-55
2021/12/06 08:14:59;;;;;;;;;;;0.60;99.90;;;;;;4863163;29;19952;-58
2021/12/06 08:17:25;;;;;;;;;;;0.60;99.90;;;;;;4863400;29;19952;-54
2021/12/06 08:20:05;;;;;;;;;;;0.60;99.90;;;;;;4863045;29;19927;-54
2021/12/06 08:22:32;;;;;;;;;;;0.60;99.90;;;;;;4864367;29;19931;-53
2021/12/06 08:24:59;;;;;;;;;;;0.60;99.90;;;;;;4863734;29;19983;-59
2021/12/06 08:27:26;;;;;;;;;;;0.70;99.90;;;;;;4876721;29;20375;-56
2021/12/06 08:29:55;;;;;;;;;;;0.70;99.90;;;;;;4861782;29;19958;-54
2021/12/06 08:32:25;;;;;;;;;;;0.70;99.90;;;;;;4863952;29;19934;-55
2021/12/06 08:34:57;;;;;;;;;;;0.70;99.90;;;;;;4863442;29;20329;-55
2021/12/06 08:37:26;;;;;;;;;;;0.70;99.90;;;;;;4863792;29;20398;-54
2021/12/06 08:39:53;;;;;;;;;;;0.80;99.90;;;;;;4860102;29;19927;-55
2021/12/06 08:42:19;;;;;;;;;;;0.80;99.90;;;;;;4862899;29;19923;-55
2021/12/06 08:44:46;;;;;;;;;;;0.80;99.90;;;;;;4877149;29;19935;-54
2021/12/06 08:47:15;;;;;;;;;;;0.80;99.90;;;;;;4862599;29;19930;-53
2021/12/06 08:49:42;;;;;;;;;;;0.90;99.90;;;;;;4861935;29;19992;-55
2021/12/06 08:52:09;;;;;;;;;;;0.90;99.90;;;;;;4862645;29;19923;-53
2021/12/06 08:54:35;;;;;;;;;;;0.90;99.90;;;;;;4862202;29;19956;-54
2021/12/06 08:57:04;;;;;;;;;;;0.90;99.90;;;;;;4863181;29;20040;-54
2021/12/06 08:59:31;;;;;;;;;;;1.00;99.90;;;;;;4861749;29;20502;-55
2021/12/06 09:01:58;;;;;;;;;;;0.90;99.90;;;;;;4861642;29;20407;-52
2021/12/06 09:04:45;;;;;;;;;;;1.00;99.90;;;;;;4862917;29;20414;-54
2021/12/06 09:07:13;;;;;;;;;;;0.90;99.90;;;;;;4870566;29;19935;-55
2021/12/06 09:09:46;;;;;;;;;;;1.00;99.90;;;;;;4862175;29;19927;-55
2021/12/06 09:12:16;;;;;;;;;;;1.00;99.90;;;;;;4862973;29;19927;-54
2021/12/06 09:14:44;;;;;;;;;;;1.10;99.90;;;;;;4862085;29;19928;-55
2021/12/06 09:17:12;;;;;;;;;;;1.00;99.90;;;;;;4858720;29;19927;-55
2021/12/06 09:19:39;;;;;;;;;;;1.10;99.90;;;;;;4861051;29;20011;-54
2021/12/06 09:22:06;;;;;;;;;;;1.10;99.90;;;;;;4864910;29;19928;-54
2021/12/06 09:24:33;;;;;;;;;;;1.20;99.90;;;;;;4866016;29;20221;-52
2021/12/06 09:27:01;;;;;;;;;;;1.20;99.90;;;;;;4864266;29;19928;-55
2021/12/06 09:29:33;;;;;;;;;;;1.30;99.90;;;;;;4865066;29;19927;-53
2021/12/06 09:32:00;;;;;;;;;;;1.30;99.90;;;;;;4864517;29;19927;-53
2021/12/06 09:34:27;;;;;;;;;;;1.40;99.90;;;;;;4880129;29;19951;-54
2021/12/06 09:36:55;;;;;;;;;;;1.40;99.90;;;;;;4850860;29;19932;-53
2021/12/06 09:39:22;;;;;;;;;;;1.50;99.90;;;;;;4880116;29;20115;-53
2021/12/06 09:41:51;;;;;;;;;;;1.50;99.90;;;;;;4864478;29;19924;-54
2021/12/06 09:44:18;;;;;;;;;;;1.60;99.90;;;;;;4880365;29;20465;-54
2021/12/06 09:46:46;;;;;;;;;;;1.60;99.90;;;;;;4864774;29;19928;-53
2021/12/06 09:49:14;;;;;;;;;;;1.70;99.90;;;;;;4864296;29;20395;-54
2021/12/06 09:51:43;;;;;;;;;;;1.70;99.90;;;;;;4866085;29;20206;-51
2021/12/06 09:54:11;;;;;;;;;;;1.70;99.90;;;;;;4878739;29;20346;-54
2021/12/06 09:56:40;;;;;;;;;;;1.80;99.90;;;;;;4865568;29;19955;-54
2021/12/06 09:59:09;;;;;;;;;;;1.90;99.90;;;;;;4864735;29;19928;-53
2021/12/06 10:01:44;;;;;;;;;;;1.90;99.90;;;;;;4866491;29;19932;-53
2021/12/06 10:04:14;;;;;;;;;;;1.90;99.90;;;;;;4865584;29;19928;-54
2021/12/06 10:06:43;;;;;;;;;;;2.00;99.90;;;;;;4862375;29;20011;-54
2021/12/06 10:09:11;;;;;;;;;;;2.10;99.90;;;;;;4862521;29;19928;-52
2021/12/06 10:11:41;;;;;;;;;;;2.10;99.90;;;;;;4866873;29;20350;-54
2021/12/06 10:14:08;;;;;;;;;;;2.20;99.90;;;;;;4878505;29;19924;-54
2021/12/06 10:16:35;;;;;;;;;;;2.20;99.90;;;;;;4861402;29;19991;-51
2021/12/06 10:19:05;;;;;;;;;;;2.20;99.90;;;;;;4863942;29;20295;-51
2021/12/06 10:21:33;;;;;;;;;;;2.20;99.90;;;;;;4863521;29;19935;-51
2021/12/06 10:23:59;;;;;;;;;;;2.30;99.90;;;;;;4864391;29;19991;-53
2021/12/06 10:26:28;;;;;;;;;;;2.30;99.90;;;;;;4864513;29;19934;-54
2021/12/06 10:29:04;;;;;;;;;;;2.30;99.90;;;;;;4866355;29;20857;-53
2021/12/06 10:31:38;;;;;;;;;;;2.30;99.90;;;;;;4862959;29;19994;-53
2021/12/06 10:34:05;;;;;;;;;;;2.30;99.90;;;;;;4865442;29;19935;-54
2021/12/06 10:36:33;;;;;;;;;;;2.20;99.90;;;;;;4850929;29;20242;-54
2021/12/06 10:39:04;;;;;;;;;;;2.30;99.90;;;;;;4879444;29;19967;-54
2021/12/06 10:41:32;;;;;;;;;;;2.30;99.90;;;;;;4864911;29;19932;-53
2021/12/06 10:44:00;;;;;;;;;;;2.20;99.90;;;;;;4865337;29;20083;-53
2021/12/06 10:46:31;;;;;;;;;;;2.20;99.90;;;;;;4865344;29;20388;-54
2021/12/06 10:49:01;;;;;;;;;;;2.20;99.90;;;;;;4864361;29;19987;-54
2021/12/06 10:51:33;;;;;;;;;;;2.20;99.90;;;;;;4865625;29;19938;-54
2021/12/06 10:54:05;;;;;;;;;;;2.10;99.90;;;;;;4864788;29;20630;-54
2021/12/06 10:56:40;;;;;;;;;;;2.10;99.90;;;;;;4865128;29;19935;-54
2021/12/06 10:59:16;;;;;;;;;;;2.20;99.90;;;;;;4864036;29;19927;-54
2021/12/06 11:01:47;;;;;;;;;;;2.20;99.90;;;;;;4878995;29;19930;-53
2021/12/06 11:04:19;;;;;;;;;;;2.20;99.90;;;;;;4865585;29;19955;-53
2021/12/06 11:07:05;;;;;;;;;;;2.40;99.90;;;;;;4860141;29;19935;-54
2021/12/06 11:09:34;;;;;;;;;;;2.40;99.90;;;;;;4864075;29;19928;-53
2021/12/06 11:12:02;;;;;;;;;;;2.50;99.90;;;;;;4864659;29;19927;-53
2021/12/06 11:14:33;;;;;;;;;;;2.60;99.90;;;;;;4864235;29;20709;-54
2021/12/06 11:17:04;;;;;;;;;;;2.60;99.90;;;;;;4860156;29;19927;-54
2021/12/06 11:19:34;;;;;;;;;;;2.70;99.90;;;;;;4863276;29;20385;-54
2021/12/06 11:22:06;;;;;;;;;;;2.80;99.90;;;;;;4864771;29;19928;-54
2021/12/06 11:24:39;;;;;;;;;;;2.80;99.90;;;;;;4864686;29;20462;-54
2021/12/06 11:27:11;;;;;;;;;;;2.90;99.90;;;;;;4864431;29;19927;-53
2021/12/06 11:29:44;;;;;;;;;;;2.90;99.90;;;;;;4862220;29;20022;-54
2021/12/06 11:32:19;;;;;;;;;;;3.00;99.90;;;;;;4864432;29;19984;-53
2021/12/06 11:34:51;;;;;;;;;;;3.10;99.90;;;;;;4875595;29;19935;-55
2021/12/06 11:37:19;;;;;;;;;;;3.10;99.90;;;;;;4850107;29;19974;-55
2021/12/06 11:39:48;;;;;;;;;;;3.20;99.90;;;;;;4861189;29;19928;-50
2021/12/06 11:42:15;;;;;;;;;;;3.20;99.90;;;;;;4863962;29;19931;-52
2021/12/06 11:44:57;;;;;;;;;;;3.30;99.90;;;;;;4863701;29;19934;-56
2021/12/06 11:47:23;;;;;;;;;;;3.30;99.90;;;;;;4861451;29;19976;-56
2021/12/06 11:49:54;;;;;;;;;;;3.30;99.90;;;;;;4862639;29;19928;-53
2021/12/06 11:52:29;;;;;;;;;;;3.40;99.90;;;;;;4863808;29;20590;-55
2021/12/06 11:55:02;;;;;;;;;;;3.50;99.90;;;;;;4863964;29;19943;-56
2021/12/06 11:57:30;;;;;;;;;;;3.60;99.90;;;;;;4863682;29;19935;-57
2021/12/06 11:59:59;;;;;;;;;;;3.60;99.90;;;;;;4864431;29;19939;-55
2021/12/06 12:02:41;;;;;;;;;;;3.60;99.90;;;;;;4878243;29;20154;-53
2021/12/06 12:05:12;;;;;;;;;;;3.70;99.90;;;;;;4864084;29;20437;-55
2021/12/06 12:07:55;;;;;;;;;;;3.60;99.90;;;;;;4856761;29;19927;-55
2021/12/06 12:10:28;;;;;;;;;;;3.70;99.90;;;;;;4863488;29;20467;-54
2021/12/06 12:12:58;;;;;;;;;;;3.60;99.90;;;;;;4863177;29;20499;-54
2021/12/06 12:15:25;;;;;;;;;;;3.70;99.90;;;;;;4864004;29;19939;-53
2021/12/06 12:17:51;;;;;;;;;;;3.80;99.90;;;;;;4859433;29;19934;-55
2021/12/06 12:20:38;;;;;;;;;;;3.90;99.90;;;;;;4876533;29;19938;-54
2021/12/06 12:23:08;;;;;;;;;;;3.90;99.90;;;;;;4864201;29;19959;-55
2021/12/06 12:26:23;;;;;;;;;;;3.90;99.90;;;;;;4863691;29;19935;-55
2021/12/06 12:28:36;;;;;;;;;;;3.90;99.90;;;;;;4862573;29;19927;-55
2021/12/06 12:31:04;;;;;;;;;;;3.90;99.90;;;;;;4861645;29;19932;-55
2021/12/06 12:33:31;;;;;;;;;;;3.90;99.90;;;;;;4863677;29;20487;-55
2021/12/06 12:36:04;;;;;;;;;;;3.90;99.90;;;;;;4852531;29;19958;-55
2021/12/06 12:38:34;;;;;;;;;;;3.80;99.90;;;;;;4860826;29;20663;-54
2021/12/06 12:41:03;;;;;;;;;;;3.80;99.90;;;;;;4863060;29;20426;-55
2021/12/06 12:43:33;;;;;;;;;;;3.70;99.90;;;;;;4863635;29;20236;-55
2021/12/06 12:46:13;;;;;;;;;;;3.60;99.90;;;;;;4860813;29;20019;-60
2021/12/06 12:48:44;;;;;;;;;;;3.60;99.90;;;;;;4862503;29;20417;-54
2021/12/06 12:51:14;;;;;;;;;;;3.50;99.90;;;;;;4863560;29;20066;-54
2021/12/06 12:53:46;;;;;;;;;;;3.50;99.90;;;;;;4862205;29;19928;-52
2021/12/06 12:56:25;;;;;;;;;;;3.40;99.90;;;;;;4863557;29;19928;-52
2021/12/06 12:58:52;;;;;;;;;;;3.40;99.90;;;;;;4865847;29;19927;-49
2021/12/06 13:01:23;;;;;;;;;;;3.40;99.90;;;;;;4866955;29;19984;-49
2021/12/06 13:03:52;;;;;;;;;;;3.30;99.90;;;;;;4866250;29;19957;-52
2021/12/06 13:06:22;;;;;;;;;;;3.30;99.90;;;;;;4865639;29;19928;-51
2021/12/06 13:08:51;;;;;;;;;;;3.20;99.90;;;;;;4859816;29;20445;-53
2021/12/06 13:11:26;;;;;;;;;;;3.20;99.90;;;;;;4866802;29;19927;-53
2021/12/06 13:13:53;;;;;;;;;;;3.20;99.90;;;;;;4866006;29;19935;-51
2021/12/06 13:21:54;;;;;;;;;;;3.10;99.90;;;;;;4864869;29;19932;-49
2021/12/06 13:24:21;;;;;;;;;;;3.10;99.90;;;;;;4866916;29;19935;-56
2021/12/06 13:26:49;;;;;;;;;;;3.10;99.90;;;;;;4864772;29;19970;-53
2021/12/06 13:29:18;;;;;;;;;;;3.00;99.90;;;;;;4866128;29;20153;-54
2021/12/06 13:31:55;;;;;;;;;;;2.90;99.90;;;;;;4866174;29;19928;-54
2021/12/06 13:34:29;;;;;;;;;;;2.90;99.90;;;;;;4864753;29;20461;-54
2021/12/06 13:36:55;;;;;;;;;;;2.90;99.90;;;;;;4851463;29;19928;-55
2021/12/06 13:39:42;;;;;;;;;;;2.80;99.90;;;;;;4879619;29;20902;-54
2021/12/06 13:42:11;;;;;;;;;;;2.80;99.90;;;;;;4865461;29;20274;-55
2021/12/06 13:44:46;;;;;;;;;;;2.70;99.90;;;;;;4865680;29;19935;-51
2021/12/06 13:47:24;;;;;;;;;;;2.70;99.90;;;;;;4867540;29;19934;-54
2021/12/06 13:49:56;;;;;;;;;;;2.60;99.90;;;;;;4859320;29;19927;-58
2021/12/06 13:52:46;;;;;;;;;;;2.50;99.90;;;;;;4879943;29;19927;-55
2021/12/06 13:55:18;;;;;;;;;;;2.50;99.90;;;;;;4863027;29;20375;-53
2021/12/06 13:57:46;;;;;;;;;;;2.50;99.90;;;;;;4862601;29;19935;-52
2021/12/06 14:00:14;;;;;;;;;;;2.40;99.90;;;;;;4855794;29;19928;-51
2021/12/06 14:02:41;;;;;;;;;;;2.40;99.90;;;;;;4865857;29;20573;-51
2021/12/06 14:05:08;;;;;;;;;;;2.40;99.90;;;;;;4880379;29;19963;-51
2021/12/06 14:07:39;;;;;;;;;;;2.40;99.90;;;;;;4859576;29;19956;-53
2021/12/06 14:10:06;;;;;;;;;;;2.40;99.90;;;;;;4866298;29;20347;-52
2021/12/06 14:12:33;;;;;;;;;;;2.40;99.90;;;;;;4865761;29;20313;-52
2021/12/06 14:17:49;;;;;;;;;;;2.30;99.90;;;;;;4861022;29;20548;-52
2021/12/06 14:20:15;;;;;;;;;;;2.30;99.90;;;;;;4864551;29;19931;-52
2021/12/06 14:22:44;;;;;;;;;;;2.30;99.90;;;;;;4865640;29;19935;-53
2021/12/06 14:25:13;;;;;;;;;;;2.20;99.90;;;;;;4865628;29;20229;-52
2021/12/06 14:27:40;;;;;;;;;;;2.20;99.90;;;;;;4865772;29;20050;-51
2021/12/06 14:30:11;;;;;;;;;;;2.20;99.90;;;;;;4863404;29;20110;-53
2021/12/06 14:32:44;;;;;;;;;;;2.20;99.90;;;;;;4865876;29;19935;-51
2021/12/06 14:35:11;;;;;;;;;;;2.20;99.90;;;;;;4863206;29;19979;-52
2021/12/06 14:37:38;;;;;;;;;;;2.10;99.90;;;;;;4863835;29;20007;-52
2021/12/06 14:40:06;;;;;;;;;;;2.20;99.90;;;;;;4879017;29;19928;-54
2021/12/06 14:42:33;;;;;;;;;;;2.10;99.90;;;;;;4866072;29;19927;-52
2021/12/06 14:45:02;;;;;;;;;;;2.10;99.90;;;;;;4864436;29;19928;-52
2021/12/06 14:47:31;;;;;;;;;;;2.10;99.90;;;;;;4879406;29;19938;-52
2021/12/06 14:49:59;;;;;;;;;;;2.10;99.90;;;;;;4864276;29;19935;-52
2021/12/06 14:52:33;;;;;;;;;;;2.10;99.90;;;;;;4865296;29;19931;-52
2021/12/06 14:57:53;;;;;;;;;;;2.10;99.90;;;;;;4865526;29;20074;-51
2021/12/06 15:00:22;;;;;;;;;;;2.10;99.90;;;;;;4864794;29;19927;-52
2021/12/06 15:02:52;;;;;;;;;;;2.10;99.90;;;;;;4864725;29;19927;-51
2021/12/06 15:05:30;;;;;;;;;;;2.10;99.90;;;;;;4864864;29;19955;-52
2021/12/06 15:08:00;;;;;;;;;;;2.10;99.90;;;;;;4858050;29;20306;-51
2021/12/06 15:10:27;;;;;;;;;;;2.10;99.90;;;;;;4865202;29;19935;-52